Waynesville, Pennsylvania
Current Conditions -  °F | °C
As of 10:58 PM on Sunday 23 Nov 2014 (Local Time) from KMUI Reporting Station
Light Rain Light Rain  
Wind Chill: 44°   Ceiling: 1300
Heat Index: 46°   Visibility: 7mi
Dew Point: 39°   Wind: 6mph
Humidity: 76%   Direction: 30°NNE
Pressure: 29.92"   Gusts: NA
Location:  40.4949°N, 76.8115°W
Report Text: KMUI 240358Z AUTO 03005KT 7SM -RA BKN013 OVC018 08/04 A2992 RMK AO2 SLP137 P0000 $
Loading
Personal Weather Stations






























Interactive Weather Map New forecast layout! Learn more

10-Day Weather Forecast

Advertisements
Track Severe Weather on mobile